Time;durP1;ratioP1;P1;durP2;ratioP2;P2;SDS_P1;SDS_P2;PMS_P1;PMS_P2;Temp;Humidity;BMP_temperature;BMP_pressure;BME280_temperature;BME280_humidity;BME280_pressure;Samples;Min_cycle;Max_cycle;Signal;HPM_P1;HPM_P2
2021/03/05 00:00:17;;;;;;;44.90;36.00;;;;;;;1.41;100.00;100930.25;4976799;28;20454;-90
2021/03/05 00:02:43;;;;;;;50.08;41.67;;;;;;;1.14;100.00;100935.22;4994124;28;20022;-89
2021/03/05 00:05:10;;;;;;;44.80;33.17;;;;;;;0.73;100.00;100925.03;4976784;28;20056;-90
2021/03/05 00:07:36;;;;;;;44.33;31.55;;;;;;;0.56;100.00;100931.78;4992871;28;20053;-90
2021/03/05 00:10:06;;;;;;;44.85;34.28;;;;;;;1.09;100.00;100923.53;4994005;28;20030;-90
2021/03/05 00:12:31;;;;;;;49.92;39.30;;;;;;;0.57;100.00;100926.41;4993671;28;20026;-89
2021/03/05 00:14:57;;;;;;;39.80;29.02;;;;;;;1.00;100.00;100926.97;4976807;28;20407;-90
2021/03/05 00:17:22;;;;;;;43.42;32.47;;;;;;;1.23;100.00;100924.91;4976585;28;20026;-90
2021/03/05 00:19:48;;;;;;;42.95;32.08;;;;;;;1.10;100.00;100919.97;4992700;28;20022;-90
2021/03/05 00:22:13;;;;;;;39.70;35.50;;;;;;;1.02;100.00;100925.88;4992594;28;20089;-90
2021/03/05 00:24:38;;;;;;;39.42;35.40;;;;;;;1.09;100.00;100919.16;4976309;28;20074;-90
2021/03/05 00:27:04;;;;;;;33.15;28.70;;;;;;;0.99;100.00;100920.91;4976128;28;20077;-90
2021/03/05 00:29:30;;;;;;;29.73;25.13;;;;;;;0.73;100.00;100915.44;4976250;28;20088;-90
2021/03/05 00:31:55;;;;;;;29.70;26.60;;;;;;;0.58;100.00;100920.25;4993608;28;20049;-91
2021/03/05 00:34:21;;;;;;;34.05;29.52;;;;;;;0.96;100.00;100913.34;4993671;28;20018;-91
2021/03/05 00:36:48;;;;;;;34.22;25.95;;;;;;;0.50;100.00;100908.81;4976076;28;20018;-90
2021/03/05 00:39:14;;;;;;;28.00;25.05;;;;;;;0.31;100.00;100909.59;4993447;28;20029;-90
2021/03/05 00:41:40;;;;;;;40.88;36.92;;;;;;;0.07;100.00;100912.56;4976330;28;20100;-89
2021/03/05 00:44:06;;;;;;;35.83;32.17;;;;;;;0.04;100.00;100905.81;4975900;28;20041;-90
2021/03/05 00:46:32;;;;;;;40.15;35.85;;;;;;;0.33;100.00;100900.66;4991960;28;20049;-90
2021/03/05 00:48:58;;;;;;;48.42;35.47;;;;;;;0.13;100.00;100909.41;4975798;28;20034;-89
2021/03/05 00:51:24;;;;;;;38.80;30.00;;;;;;;0.37;100.00;100902.03;4992211;28;20523;-90
2021/03/05 00:53:50;;;;;;;33.47;27.50;;;;;;;0.47;100.00;100894.22;4975697;28;20096;-90
2021/03/05 00:56:15;;;;;;;38.60;34.47;;;;;;;0.73;100.00;100889.28;4992450;28;20033;-90
2021/03/05 00:58:41;;;;;;;34.80;29.13;;;;;;;0.60;100.00;100893.94;4975620;28;20026;-90
2021/03/05 01:01:07;;;;;;;31.52;28.27;;;;;;;0.49;100.00;100894.09;4993370;28;20034;-89
2021/03/05 01:03:32;;;;;;;32.72;29.45;;;;;;;0.32;100.00;100893.78;4991990;28;20033;-89
2021/03/05 01:05:58;;;;;;;33.58;30.25;;;;;;;0.01;100.00;100897.44;4993065;28;20073;-90
2021/03/05 01:08:23;;;;;;;35.80;32.20;;;;;;;0.11;100.00;100891.25;4975933;28;20462;-90
2021/03/05 01:10:49;;;;;;;32.47;26.75;;;;;;;0.06;100.00;100890.00;4992927;28;20023;-90
2021/03/05 01:13:15;;;;;;;32.95;27.42;;;;;;;0.16;100.00;100890.88;4975764;28;20606;-89
2021/03/05 01:15:40;;;;;;;30.70;27.50;;;;;;;0.30;100.00;100893.06;4991684;28;20029;-90
2021/03/05 01:18:06;;;;;;;33.63;30.60;;;;;;;0.40;100.00;100895.72;4975573;28;20030;-90
2021/03/05 01:20:31;;;;;;;32.30;24.05;;;;;;;-0.18;100.00;100896.41;4991743;28;20090;-90
2021/03/05 01:22:57;;;;;;;121.05;81.20;;;;;;;-0.19;100.00;100892.13;4975427;28;20054;-89
2021/03/05 01:25:29;;;;;;;79.45;55.97;;;;;;;-0.20;100.00;100897.50;4991537;28;20026;-90
2021/03/05 01:27:55;;;;;;;66.00;53.38;;;;;;;-0.06;100.00;100889.28;4975434;28;20027;-90
2021/03/05 01:30:21;;;;;;;52.80;45.97;;;;;;;0.20;100.00;100889.63;4975807;28;20574;-89
2021/03/05 01:32:47;;;;;;;48.88;35.30;;;;;;;0.03;100.00;100888.50;4975941;28;20053;-90
2021/03/05 01:35:16;;;;;;;50.38;36.75;;;;;;;-0.07;100.00;100896.28;4975623;28;20026;-90
2021/03/05 01:37:42;;;;;;;48.28;37.47;;;;;;;-0.15;100.00;100890.91;4991649;28;20022;-89
2021/03/05 01:40:11;;;;;;;48.92;38.90;;;;;;;-0.21;100.00;100887.97;4991556;28;20037;-89
2021/03/05 01:42:37;;;;;;;51.38;43.88;;;;;;;-0.40;100.00;100893.97;4975313;28;20027;-90
2021/03/05 01:45:09;;;;;;;32.58;27.55;;;;;;;-0.53;100.00;100889.78;4991480;28;20038;-90
2021/03/05 01:47:34;;;;;;;33.40;26.35;;;;;;;-0.48;100.00;100881.56;4975312;28;20073;-90
2021/03/05 01:50:00;;;;;;;37.42;29.50;;;;;;;-0.64;100.00;100882.03;4975519;28;20124;-90
2021/03/05 01:52:26;;;;;;;40.70;36.53;;;;;;;-0.74;100.00;100881.16;4991545;28;20019;-89
2021/03/05 01:54:51;;;;;;;35.92;26.42;;;;;;;-0.54;100.00;100885.53;4992756;28;20029;-89
2021/03/05 01:57:17;;;;;;;32.35;25.33;;;;;;;-0.36;100.00;100887.53;4975313;28;20026;-89
2021/03/05 01:59:42;;;;;;;50.20;44.83;;;;;;;-0.88;100.00;100884.06;4975140;28;20085;-91
2021/03/05 02:02:09;;;;;;;48.78;42.40;;;;;;;-0.84;100.00;100891.53;4995094;28;20081;-90
2021/03/05 02:04:36;;;;;;;39.83;31.10;;;;;;;-0.79;100.00;100880.69;4995198;28;20033;-90
2021/03/05 02:07:06;;;;;;;39.10;29.67;;;;;;;-0.80;100.00;100885.09;4995064;28;20112;-90
2021/03/05 02:09:32;;;;;;;48.85;38.58;;;;;;;-0.59;100.00;100885.06;4994972;28;20077;-90
2021/03/05 02:11:59;;;;;;;40.50;35.17;;;;;;;-0.91;100.00;100882.53;4995092;28;20431;-90
2021/03/05 02:14:25;;;;;;;43.28;38.47;;;;;;;-1.04;100.00;100882.75;4994913;28;20030;-90
2021/03/05 02:17:28;;;;;;;111.43;83.30;;;;;;;-0.77;100.00;100884.00;4995062;28;20022;-89
2021/03/05 02:20:14;;;;;;;62.42;47.03;;;;;;;-0.79;100.00;100885.91;4999600;28;20054;-90
2021/03/05 02:23:02;;;;;;;42.03;34.35;;;;;;;-1.13;100.00;100891.31;4989514;28;20085;-90
2021/03/05 02:26:01;;;;;;;64.35;53.40;;;;;;;-1.04;100.00;100892.34;4975165;28;20081;-89
2021/03/05 02:28:54;;;;;;;72.35;50.70;;;;;;;-0.88;100.00;100892.72;4975309;28;20027;-89
2021/03/05 02:31:38;;;;;;;53.15;37.45;;;;;;;-1.19;100.00;100884.81;4975977;28;20027;-89
2021/03/05 02:34:06;;;;;;;60.50;47.25;;;;;;;-0.87;100.00;100885.75;4975263;28;20090;-89
2021/03/05 02:36:41;;;;;;;48.13;40.33;;;;;;;-0.74;100.00;100884.56;4974404;28;20022;-89
2021/03/05 02:39:18;;;;;;;43.90;33.58;;;;;;;-0.97;100.00;100888.28;4974981;28;20050;-89
2021/03/05 02:41:48;;;;;;;40.58;29.83;;;;;;;-1.15;100.00;100893.22;4975037;28;20107;-89
2021/03/05 02:44:31;;;;;;;44.03;30.58;;;;;;;-1.22;100.00;100897.28;4959025;28;20118;-88
2021/03/05 02:47:05;;;;;;;46.00;38.35;;;;;;;-1.07;100.00;100905.63;4976199;28;20037;-89
2021/03/05 02:49:34;;;;;;;52.45;43.60;;;;;;;-0.81;100.00;100903.50;4974747;28;20026;-90
2021/03/05 02:52:06;;;;;;;46.38;33.92;;;;;;;-0.89;100.00;100904.13;4974959;28;20110;-89
2021/03/05 02:54:37;;;;;;;45.60;33.10;;;;;;;-1.06;100.00;100915.09;4974779;28;20019;-89
2021/03/05 02:57:06;;;;;;;49.53;35.53;;;;;;;-1.06;100.00;100907.28;4975056;28;20038;-89
2021/03/05 02:59:35;;;;;;;44.25;39.13;;;;;;;-1.47;100.00;100912.31;4974604;28;20516;-90
2021/03/05 03:02:01;;;;;;;40.28;30.17;;;;;;;-1.17;100.00;100916.00;4973398;28;20090;-89
2021/03/05 03:04:28;;;;;;;43.00;32.30;;;;;;;-1.05;100.00;100915.00;4974684;28;20018;-90
2021/03/05 03:06:55;;;;;;;51.75;34.15;;;;;;;-0.98;100.00;100929.16;4974635;28;20030;-89
2021/03/05 03:09:21;;;;;;;46.22;33.88;;;;;;;-1.14;100.00;100925.34;4974428;28;20485;-90
2021/03/05 03:11:48;;;;;;;50.95;43.97;;;;;;;-0.83;100.00;100931.47;5063345;23;20138;-90
2021/03/05 03:14:15;;;;;;;42.35;30.95;;;;;;;-0.77;100.00;100933.56;4955118;29;20467;-90
2021/03/05 03:16:42;;;;;;;45.13;32.50;;;;;;;-0.88;100.00;100923.19;4939244;29;20110;-91
2021/03/05 03:19:11;;;;;;;43.50;30.92;;;;;;;-0.66;100.00;100924.88;4939099;29;20479;-91
2021/03/05 03:21:37;;;;;;;46.20;34.00;;;;;;;-0.95;100.00;100928.09;4939049;29;20054;-91
2021/03/05 03:24:05;;;;;;;48.35;29.92;;;;;;;-1.07;100.00;100929.91;4956264;29;20032;-90
2021/03/05 03:26:31;;;;;;;43.15;28.45;;;;;;;-1.50;100.00;100922.97;4938830;29;20027;-90
2021/03/05 03:28:57;;;;;;;47.03;31.75;;;;;;;-1.04;100.00;100931.44;4938869;29;20019;-91
2021/03/05 03:31:22;;;;;;;45.78;33.10;;;;;;;-1.00;100.00;100928.50;4938902;29;20019;-91
2021/03/05 03:33:48;;;;;;;50.63;38.88;;;;;;;-1.33;100.00;100936.41;4938877;29;20027;-90
2021/03/05 03:36:14;;;;;;;43.92;29.10;;;;;;;-1.33;100.00;100931.19;4954688;29;20019;-90
2021/03/05 03:38:40;;;;;;;50.08;32.78;;;;;;;-1.24;100.00;100935.66;4938725;29;20023;-90
2021/03/05 03:41:06;;;;;;;80.97;52.65;;;;;;;-1.29;100.00;100930.03;4954746;29;20490;-90
2021/03/05 03:43:32;;;;;;;129.07;86.05;;;;;;;-1.44;100.00;100926.88;4938576;29;20027;-90
2021/03/05 03:45:58;;;;;;;102.97;71.03;;;;;;;-1.25;100.00;100936.63;4938537;29;20027;-91
2021/03/05 03:48:27;;;;;;;85.70;62.72;;;;;;;-1.14;100.00;100922.75;4938644;29;20055;-90
2021/03/05 03:51:01;;;;;;;76.32;53.17;;;;;;;-1.14;100.00;100930.56;4938340;29;20019;-90
2021/03/05 03:53:29;;;;;;;66.47;46.55;;;;;;;-0.88;100.00;100923.19;4938458;29;20019;-91
2021/03/05 03:55:56;;;;;;;64.38;44.97;;;;;;;-1.07;100.00;100923.88;4938420;29;20027;-91
2021/03/05 03:58:23;;;;;;;58.85;43.33;;;;;;;-1.27;100.00;100933.31;4954313;29;20031;-90
2021/03/05 04:00:59;;;;;;;63.50;48.95;;;;;;;-1.37;100.00;100935.84;4938459;29;20559;-91
2021/03/05 04:03:26;;;;;;;69.45;48.35;;;;;;;-1.29;100.00;100928.25;4955729;29;20581;-90
2021/03/05 04:05:54;;;;;;;60.20;45.42;;;;;;;-1.25;100.00;100929.63;4938105;29;20023;-90
2021/03/05 04:08:20;;;;;;;60.67;44.35;;;;;;;-1.15;100.00;100929.72;4955558;29;20027;-91
2021/03/05 04:10:47;;;;;;;55.85;42.28;;;;;;;-1.62;100.00;100929.16;4954133;29;20033;-91
2021/03/05 04:13:15;;;;;;;62.05;52.30;;;;;;;-1.27;100.00;100928.09;4955226;28;20427;-90
2021/03/05 04:15:41;;;;;;;52.05;40.67;;;;;;;-1.29;100.00;100933.44;4954003;29;20023;-91
2021/03/05 04:18:06;;;;;;;54.47;43.67;;;;;;;-1.27;100.00;100925.50;4953703;29;20078;-91
2021/03/05 04:20:36;;;;;;;54.53;45.47;;;;;;;-1.43;100.00;100918.91;4937998;29;20086;-91
2021/03/05 04:23:03;;;;;;;58.25;51.97;;;;;;;-1.54;100.00;100934.59;4937326;29;20027;-90
2021/03/05 04:25:28;;;;;;;62.20;55.60;;;;;;;-1.40;100.00;100931.69;4955180;29;20054;-90
2021/03/05 04:27:54;;;;;;;60.28;51.72;;;;;;;-1.56;100.00;100933.88;4955206;29;20483;-91
2021/03/05 04:30:20;;;;;;;54.88;48.85;;;;;;;-1.56;100.00;100935.66;4937696;29;20499;-90
2021/03/05 04:32:45;;;;;;;56.78;50.08;;;;;;;-1.70;100.00;100927.16;4953815;29;20122;-90
2021/03/05 04:35:12;;;;;;;62.42;53.95;;;;;;;-1.61;100.00;100939.44;4953677;29;20079;-91
2021/03/05 04:37:38;;;;;;;58.88;48.70;;;;;;;-1.33;100.00;100937.25;4937494;29;20023;-90
2021/03/05 04:40:06;;;;;;;50.58;41.72;;;;;;;-1.26;100.00;100937.59;4937576;29;20542;-91
2021/03/05 04:42:31;;;;;;;50.90;45.55;;;;;;;-1.11;100.00;100935.53;4921799;29;20035;-90
2021/03/05 04:44:57;;;;;;;52.33;46.63;;;;;;;-0.90;100.00;100932.94;4937505;29;20027;-91
2021/03/05 04:47:22;;;;;;;57.42;51.58;;;;;;;-0.50;100.00;100933.88;4953359;29;20051;-91
2021/03/05 04:49:47;;;;;;;55.00;49.63;;;;;;;-0.71;100.00;100933.06;4937234;29;20026;-91
2021/03/05 04:52:13;;;;;;;47.92;42.88;;;;;;;-0.77;100.00;100934.41;4937489;29;20026;-90
2021/03/05 04:54:38;;;;;;;52.67;47.08;;;;;;;-0.98;100.00;100939.59;4953287;29;20035;-90
2021/03/05 04:57:04;;;;;;;52.65;46.80;;;;;;;-1.27;100.00;100943.72;4953416;29;20027;-91
2021/03/05 04:59:29;;;;;;;133.23;103.43;;;;;;;-1.60;100.00;100942.91;4937350;29;20031;-91
2021/03/05 05:01:55;;;;;;;123.93;98.03;;;;;;;-1.47;100.00;100953.16;4953314;29;20034;-91
2021/03/05 05:04:20;;;;;;;112.88;83.43;;;;;;;-1.57;100.00;100953.06;4937369;29;20049;-90
2021/03/05 05:06:46;;;;;;;97.70;76.75;;;;;;;-1.42;100.00;100959.66;4953188;29;20126;-90
2021/03/05 05:09:11;;;;;;;71.18;55.00;;;;;;;-1.08;100.00;100956.94;4937245;29;20074;-91
2021/03/05 05:11:36;;;;;;;72.07;55.15;;;;;;;-0.46;100.00;100957.94;4953244;29;20062;-90
2021/03/05 05:14:02;;;;;;;59.47;50.95;;;;;;;-0.53;100.00;100957.63;4937045;29;20067;-91
2021/03/05 05:16:28;;;;;;;40.25;34.38;;;;;;;0.04;100.00;100976.34;4937143;29;20031;-91
2021/03/05 05:18:54;;;;;;;42.00;32.75;;;;;;;0.43;100.00;100979.09;4953148;29;20388;-91
2021/03/05 05:21:20;;;;;;;41.70;34.63;;;;;;;0.87;100.00;100975.16;4953006;29;20027;-90
2021/03/05 05:23:46;;;;;;;42.42;33.70;;;;;;;0.29;100.00;100975.03;4937197;29;20029;-91
2021/03/05 05:26:15;;;;;;;38.03;33.92;;;;;;;0.71;100.00;100976.66;4937074;29;20563;-89
2021/03/05 05:28:41;;;;;;;39.90;35.80;;;;;;;1.02;100.00;100978.19;4936983;29;20031;-91
2021/03/05 05:31:06;;;;;;;33.70;30.10;;;;;;;0.73;100.00;100986.03;4953243;29;20620;-90
2021/03/05 05:33:32;;;;;;;40.53;30.23;;;;;;;0.40;100.00;100995.03;4952849;29;20027;-91
2021/03/05 05:35:58;;;;;;;75.43;54.00;;;;;;;-0.08;100.00;100993.88;4940496;29;20032;-91
2021/03/05 05:38:23;;;;;;;83.97;56.03;;;;;;;-0.26;100.00;100992.81;4941484;29;20027;-90
2021/03/05 05:40:49;;;;;;;85.63;56.22;;;;;;;-0.06;100.00;100994.56;4956937;29;20035;-91
2021/03/05 05:43:14;;;;;;;80.47;51.10;;;;;;;0.23;100.00;101001.69;4940812;29;20033;-90
2021/03/05 05:45:40;;;;;;;155.60;83.78;;;;;;;0.73;100.00;101001.72;4940722;29;20536;-91
2021/03/05 05:48:11;;;;;;;125.43;72.50;;;;;;;0.98;100.00;101004.78;4940682;29;20024;-91
2021/03/05 05:50:37;;;;;;;147.63;82.70;;;;;;;1.25;100.00;101006.72;4940761;29;20118;-90
2021/03/05 05:53:07;;;;;;;145.13;83.32;;;;;;;1.42;100.00;101002.56;4957995;29;20400;-91
2021/03/05 05:55:33;;;;;;;140.93;75.22;;;;;;;1.47;100.00;100998.56;4940644;29;20038;-90
2021/03/05 05:57:58;;;;;;;119.85;62.65;;;;;;;1.63;100.00;100997.97;4957820;29;20031;-89
2021/03/05 06:00:25;;;;;;;111.53;65.57;;;;;;;1.79;100.00;101000.84;4940633;29;20031;-89
2021/03/05 06:02:51;;;;;;;102.03;67.35;;;;;;;1.85;100.00;101004.72;4940268;29;20094;-89
2021/03/05 06:05:16;;;;;;;100.40;62.67;;;;;;;1.89;100.00;101011.31;4940424;29;20031;-89
2021/03/05 06:07:43;;;;;;;110.15;65.75;;;;;;;1.96;100.00;101008.94;4957564;29;20027;-89
2021/03/05 06:10:10;;;;;;;102.93;65.10;;;;;;;2.19;100.00;101014.66;4940342;29;20027;-89
2021/03/05 06:12:36;;;;;;;94.78;64.13;;;;;;;2.69;100.00;101009.88;4940326;29;20051;-89
2021/03/05 06:15:01;;;;;;;98.30;57.25;;;;;;;3.03;100.00;101019.72;4956742;29;20038;-89
2021/03/05 06:17:47;;;;;;;90.95;59.17;;;;;;;3.48;100.00;101010.94;4939983;29;20035;-88
2021/03/05 06:20:13;;;;;;;84.53;57.35;;;;;;;3.80;100.00;101012.94;4940301;29;20034;-88
2021/03/05 06:22:39;;;;;;;81.68;56.70;;;;;;;4.01;100.00;101014.41;4940274;29;20035;-89
2021/03/05 06:25:10;;;;;;;84.38;56.67;;;;;;;4.28;100.00;101014.19;4940142;29;20098;-89
2021/03/05 06:27:38;;;;;;;75.20;54.88;;;;;;;4.87;100.00;101006.34;4955874;29;20412;-89
2021/03/05 06:30:04;;;;;;;56.95;48.92;;;;;;;5.18;100.00;101006.56;4939708;29;20032;-88
2021/03/05 06:32:40;;;;;;;57.67;50.72;;;;;;;5.48;100.00;100997.19;4939238;29;20491;-90
2021/03/05 06:35:08;;;;;;;73.82;49.85;;;;;;;5.92;100.00;100993.31;4957202;29;20059;-89
2021/03/05 06:37:47;;;;;;;62.75;48.08;;;;;;;6.17;100.00;100999.38;4940029;29;20086;-89
2021/03/05 06:40:13;;;;;;;69.78;57.13;;;;;;;6.46;100.00;100996.13;4939571;29;20031;-91
2021/03/05 06:42:56;;;;;;;65.40;58.47;;;;;;;6.74;100.00;101007.03;4939302;29;20066;-89
2021/03/05 06:45:23;;;;;;;;;;;;;;;6.91;100.00;101009.59;4939974;28;20122;-89
2021/03/05 06:48:08;;;;;;;67.93;48.13;;;;;;;6.83;100.00;101006.00;4938193;29;20409;-89
2021/03/05 06:50:43;;;;;;;60.45;53.15;;;;;;;6.95;100.00;101001.13;4939667;29;20035;-89
2021/03/05 06:53:25;;;;;;;63.00;54.67;;;;;;;7.58;100.00;101005.28;4937543;29;20253;-90
2021/03/05 06:55:52;;;;;;;53.63;44.63;;;;;;;7.98;100.00;101005.88;4921273;29;20027;-89
2021/03/05 06:58:17;;;;;;;59.03;45.78;;;;;;;8.28;100.00;101008.53;4937090;29;20039;-89
2021/03/05 07:00:43;;;;;;;59.55;50.42;;;;;;;8.67;100.00;101010.06;4937857;29;20428;-89
2021/03/05 07:03:22;;;;;;;48.42;43.30;;;;;;;9.27;96.54;101006.19;4936983;28;20035;-89
2021/03/05 07:05:54;;;;;;;40.22;36.47;;;;;;;9.70;76.94;101007.97;4939505;29;20031;-88
2021/03/05 07:08:39;;;;;;;41.33;37.80;;;;;;;9.87;77.06;101004.03;4943858;29;20038;-89
2021/03/05 07:11:39;;;;;;;48.47;44.55;;;;;;;10.00;74.62;101005.94;4940716;29;20027;-89
2021/03/05 07:14:07;;;;;;;38.60;35.25;;;;;;;10.44;76.90;101004.75;4938322;29;20467;-88
2021/03/05 07:16:44;;;;;;;38.58;35.15;;;;;;;10.55;65.44;101005.00;4936691;29;20105;-89
2021/03/05 07:19:19;;;;;;;40.05;36.78;;;;;;;10.32;54.84;101005.31;4939221;29;20082;-90
2021/03/05 07:21:47;;;;;;;47.58;43.60;;;;;;;10.61;59.44;101006.06;4937105;29;20101;-89
2021/03/05 07:24:17;;;;;;;40.13;36.78;;;;;;;10.28;81.47;100996.09;4938778;29;20027;-88
2021/03/05 07:26:52;;;;;;;40.33;36.67;;;;;;;10.46;61.71;101003.53;4928830;29;20111;-91
2021/03/05 07:29:20;;;;;;;40.88;37.30;;;;;;;10.66;67.61;100993.00;4937870;29;20035;-88
2021/03/05 07:31:54;;;;;;;56.03;51.63;;;;;;;10.57;60.06;100993.38;4953881;29;20038;-91
2021/03/05 07:34:21;;;;;;;46.25;42.85;;;;;;;10.54;97.11;100995.41;4969641;28;20464;-88
2021/03/05 07:36:50;;;;;;;37.25;33.67;;;;;;;10.31;100.00;101002.84;4937433;29;20174;-88
2021/03/05 07:39:22;;;;;;;40.22;36.47;;;;;;;10.86;67.05;100998.38;4937580;29;20039;-88
2021/03/05 07:41:50;;;;;;;38.17;34.80;;;;;;;10.49;94.47;100981.06;4954807;29;20511;-88
2021/03/05 07:44:16;;;;;;;48.78;44.70;;;;;;;10.72;71.28;100992.19;4932926;28;20423;-89
2021/03/05 07:46:42;;;;;;;38.95;35.38;;;;;;;10.68;91.71;100990.13;4966959;28;20031;-88
2021/03/05 07:49:08;;;;;;;38.17;34.47;;;;;;;10.80;93.83;100980.56;4942897;29;20097;-88
2021/03/05 07:51:37;;;;;;;38.28;34.97;;;;;;;10.73;79.86;100985.84;4932944;29;20397;-89
2021/03/05 07:54:04;;;;;;;50.72;46.85;;;;;;;11.23;63.00;100986.38;4953336;29;20027;-89
2021/03/05 07:56:49;;;;;;;50.78;47.08;;;;;;;11.69;61.31;100982.88;4943400;28;20377;-89
2021/03/05 07:59:42;;;;;;;40.47;37.30;;;;;;;11.64;76.16;100990.66;4940815;29;20030;-89
2021/03/05 08:02:08;;;;;;;42.35;38.28;;;;;;;12.33;46.94;100991.97;4947649;28;20078;-88
2021/03/05 08:05:04;;;;;;;39.55;36.33;;;;;;;11.80;57.46;100996.56;4967029;28;20022;-89
2021/03/05 08:07:38;;;;;;;50.40;46.13;;;;;;;11.59;63.65;100985.16;4948903;28;20502;-88
2021/03/05 08:10:05;;;;;;;42.67;39.05;;;;;;;12.20;48.93;100986.69;4936809;29;20035;-89
2021/03/05 08:12:38;;;;;;;42.70;38.97;;;;;;;12.24;52.02;100979.09;4932302;29;20095;-89
2021/03/05 08:15:06;;;;;;;43.05;39.47;;;;;;;11.83;53.32;100981.03;4937444;29;20039;-89
2021/03/05 08:17:32;;;;;;;53.47;49.58;;;;;;;12.46;48.23;100976.94;4936674;29;20043;-89
2021/03/05 08:19:58;;;;;;;46.53;42.85;;;;;;;12.53;45.74;100980.41;4932632;29;20030;-89
2021/03/05 08:22:24;;;;;;;41.70;37.97;;;;;;;12.33;57.25;100968.00;4933784;29;20035;-90
2021/03/05 08:24:50;;;;;;;68.05;53.35;;;;;;;12.43;69.38;100975.53;4935623;29;20027;-88
2021/03/05 08:27:40;;;;;;;42.80;38.70;;;;;;;11.48;72.73;100969.78;4936257;29;20038;-88
2021/03/05 08:30:09;;;;;;;56.10;51.13;;;;;;;11.50;79.70;100964.25;4951760;29;20043;-88
2021/03/05 08:32:34;;;;;;;42.80;39.20;;;;;;;12.34;49.07;100961.66;4947924;29;20027;-89
2021/03/05 08:35:04;;;;;;;42.72;38.92;;;;;;;11.99;70.87;100966.47;4933225;29;20027;-88
2021/03/05 08:37:36;;;;;;;59.10;53.13;;;;;;;13.47;49.31;100978.81;4934563;29;20074;-88
2021/03/05 08:40:10;;;;;;;49.57;45.63;;;;;;;12.81;56.32;100977.41;4930644;29;20030;-88
2021/03/05 08:42:57;;;;;;;43.03;39.35;;;;;;;12.88;66.04;100972.81;4948461;29;20034;-89
2021/03/05 08:45:29;;;;;;;42.53;39.03;;;;;;;12.99;46.54;100966.00;4933377;29;20031;-90
2021/03/05 08:48:02;;;;;;;51.97;48.03;;;;;;;13.57;46.74;100975.63;4952305;29;20012;-89
2021/03/05 08:50:31;;;;;;;43.88;40.30;;;;;;;12.40;80.93;100967.13;4953205;29;20027;-89
2021/03/05 08:52:59;;;;;;;44.00;39.85;;;;;;;12.89;71.83;100971.81;4925194;29;20030;-89
2021/03/05 08:55:29;;;;;;;41.45;37.72;;;;;;;12.42;67.42;100957.91;4950399;28;20026;-89
2021/03/05 08:57:55;;;;;;;49.60;45.35;;;;;;;13.55;49.71;100967.03;4935844;29;20079;-89
2021/03/05 09:00:27;;;;;;;52.60;48.55;;;;;;;13.85;43.48;100956.47;4936322;29;20019;-88
2021/03/05 09:03:02;;;;;;;40.97;37.30;;;;;;;14.12;44.64;100941.78;4953711;29;20051;-89
2021/03/05 09:05:31;;;;;;;42.63;38.75;;;;;;;14.28;47.31;100950.22;4953560;29;20027;-88
2021/03/05 09:07:58;;;;;;;41.47;37.83;;;;;;;12.20;86.81;100948.59;4936433;29;20035;-89
2021/03/05 09:10:52;;;;;;;44.72;41.03;;;;;;;14.33;47.19;100945.03;4935835;29;20035;-89
2021/03/05 09:13:28;;;;;;;43.95;39.97;;;;;;;15.10;51.65;100953.22;4937586;28;20465;-89
2021/03/05 09:15:56;;;;;;;45.15;41.17;;;;;;;13.66;54.23;100953.78;4934473;29;20122;-88
2021/03/05 09:18:21;;;;;;;43.70;40.08;;;;;;;13.23;71.24;100953.72;4917495;29;20039;-88
2021/03/05 09:20:50;;;;;;;45.28;41.47;;;;;;;13.70;69.02;100959.47;4949185;28;20035;-88
2021/03/05 09:23:21;;;;;;;53.95;48.47;;;;;;;12.21;91.48;100947.56;4933886;29;20068;-89
2021/03/05 09:25:55;;;;;;;58.35;47.45;;;;;;;13.28;70.60;100952.06;4950144;28;20083;-88
2021/03/05 09:28:23;;;;;;;42.60;39.10;;;;;;;15.13;48.41;100950.09;4914900;29;20149;-88
2021/03/05 09:30:51;;;;;;;55.15;49.50;;;;;;;15.06;59.43;100950.16;4941560;28;20028;-88
2021/03/05 09:33:17;;;;;;;45.28;41.67;;;;;;;15.68;44.63;100943.63;4918260;29;20119;-89
2021/03/05 09:35:43;;;;;;;45.25;41.38;;;;;;;15.11;50.60;100950.31;4917371;29;20510;-86
2021/03/05 09:38:08;;;;;;;46.33;41.95;;;;;;;13.16;80.97;100952.94;4918462;29;20057;-90
2021/03/05 09:40:34;;;;;;;45.83;42.00;;;;;;;14.05;60.76;100940.22;4950769;28;20047;-89
2021/03/05 09:43:02;;;;;;;39.25;35.83;;;;;;;12.41;91.14;100944.81;4917138;29;20118;-89
2021/03/05 09:45:36;;;;;;;43.35;39.67;;;;;;;12.13;95.86;100946.78;4949109;28;20039;-90
2021/03/05 09:48:02;;;;;;;47.15;43.08;;;;;;;13.07;80.07;100947.91;4917457;29;20078;-85
2021/03/05 09:50:27;;;;;;;45.75;42.05;;;;;;;16.04;43.35;100945.22;4950273;28;20067;-89
2021/03/05 09:52:54;;;;;;;47.15;43.28;;;;;;;16.76;40.71;100949.28;4917061;29;20126;-90
2021/03/05 09:55:23;;;;;;;44.55;40.78;;;;;;;15.65;41.03;100954.78;4916948;29;20130;-90
2021/03/05 09:57:49;;;;;;;44.25;40.30;;;;;;;13.57;71.71;100947.09;4949040;28;20078;-90
2021/03/05 10:00:40;;;;;;;48.08;43.55;;;;;;;15.78;41.19;100941.16;4934500;29;20441;-90
2021/03/05 10:03:12;;;;;;;46.25;42.28;;;;;;;16.91;41.24;100941.50;4909300;29;20388;-89
2021/03/05 10:05:41;;;;;;;46.67;42.37;;;;;;;16.23;42.76;100930.59;4918431;29;20118;-90
2021/03/05 10:08:17;;;;;;;43.38;39.95;;;;;;;16.29;46.26;100928.00;4920917;29;20819;-89
2021/03/05 10:11:00;;;;;;;43.50;39.90;;;;;;;16.89;37.87;100936.38;4929685;29;20496;-90
2021/03/05 10:13:44;;;;;;;;;;;;;;;16.55;39.93;100929.28;4928077;29;20051;-90
2021/03/05 10:16:19;;;;;;;41.88;38.42;;;;;;;16.51;42.79;100920.09;4952752;29;19914;-90
2021/03/05 10:18:48;;;;;;;41.30;37.65;;;;;;;16.83;35.35;100921.25;4922866;29;20024;-90
2021/03/05 10:21:16;;;;;;;40.47;37.08;;;;;;;18.35;33.66;100904.84;4927088;29;20547;-91
2021/03/05 10:23:42;;;;;;;38.90;35.70;;;;;;;17.16;40.61;100909.72;4939521;29;20050;-90
2021/03/05 10:26:16;;;;;;;43.55;40.17;;;;;;;18.46;30.29;100916.53;4938816;29;20035;-90
2021/03/05 10:28:41;;;;;;;42.65;39.25;;;;;;;17.39;32.43;100906.03;4939191;29;20405;-90
2021/03/05 10:31:07;;;;;;;42.03;38.88;;;;;;;16.46;37.75;100908.25;4937854;29;20146;-89
2021/03/05 10:33:43;;;;;;;41.42;38.40;;;;;;;16.72;32.69;100901.44;4928920;29;20516;-90
2021/03/05 10:36:12;;;;;;;44.67;41.22;;;;;;;17.72;32.85;100892.78;4910209;29;20039;-91
2021/03/05 10:38:38;;;;;;;40.00;36.78;;;;;;;14.41;54.82;100891.28;4931969;29;20019;-91
2021/03/05 10:41:05;;;;;;;41.72;38.70;;;;;;;16.07;41.50;100879.59;4918593;29;20365;-89
2021/03/05 10:43:30;;;;;;;41.33;38.13;;;;;;;16.42;35.04;100885.63;4922326;29;20086;-89
2021/03/05 10:45:56;;;;;;;41.40;38.20;;;;;;;16.44;38.64;100880.84;4918341;29;20032;-90
2021/03/05 10:48:21;;;;;;;40.10;37.17;;;;;;;17.09;35.55;100892.94;4924151;29;20122;-89
2021/03/05 10:50:47;;;;;;;40.90;37.60;;;;;;;17.15;38.21;100883.91;4916535;29;20035;-90
2021/03/05 10:53:13;;;;;;;38.58;35.55;;;;;;;16.55;42.41;100876.50;4945120;29;20031;-92
2021/03/05 10:55:38;;;;;;;41.13;37.88;;;;;;;18.82;29.80;100876.50;4965621;28;20504;-89
2021/03/05 10:58:04;;;;;;;40.17;36.85;;;;;;;18.24;31.05;100860.09;4938959;29;20026;-89
2021/03/05 11:00:29;;;;;;;38.50;35.47;;;;;;;18.04;35.71;100858.00;4938453;29;20027;-90
2021/03/05 11:02:55;;;;;;;38.42;35.42;;;;;;;18.30;29.87;100864.44;4968646;28;20492;-92
2021/03/05 11:05:20;;;;;;;38.22;35.58;;;;;;;17.72;29.04;100855.16;4938580;29;20468;-89
2021/03/05 11:07:46;;;;;;;36.40;33.60;;;;;;;17.34;29.36;100863.00;4937018;29;20137;-89
2021/03/05 11:10:12;;;;;;;35.97;33.22;;;;;;;19.51;29.26;100854.88;4916745;29;20034;-89
2021/03/05 11:12:38;;;;;;;35.30;32.42;;;;;;;17.68;38.97;100846.81;4924485;29;20039;-89
2021/03/05 11:15:04;;;;;;;38.00;35.38;;;;;;;19.39;27.21;100840.81;4938817;29;20396;-90